sensor_id;sensor_type;location;lat;lon;timestamp;P1;durP1;ratioP1;P2;durP2;ratioP2
17361;SDS011;8798;51.938;4.348;2023-02-21T00:01:27;9.60;;;4.93;;
17361;SDS011;8798;51.938;4.348;2023-02-21T00:04:12;12.47;;;5.10;;
17361;SDS011;8798;51.938;4.348;2023-02-21T00:06:57;12.17;;;5.27;;
17361;SDS011;8798;51.938;4.348;2023-02-21T00:09:44;12.67;;;5.40;;
17361;SDS011;8798;51.938;4.348;2023-02-21T00:12:29;11.40;;;4.63;;
17361;SDS011;8798;51.938;4.348;2023-02-21T00:15:15;11.77;;;5.07;;
17361;SDS011;8798;51.938;4.348;2023-02-21T00:18:01;16.97;;;6.37;;
17361;SDS011;8798;51.938;4.348;2023-02-21T00:20:46;16.07;;;6.50;;
17361;SDS011;8798;51.938;4.348;2023-02-21T00:23:32;17.07;;;6.60;;
17361;SDS011;8798;51.938;4.348;2023-02-21T00:26:19;16.93;;;7.10;;
17361;SDS011;8798;51.938;4.348;2023-02-21T00:29:05;15.17;;;7.87;;
17361;SDS011;8798;51.938;4.348;2023-02-21T00:31:51;21.43;;;7.90;;
17361;SDS011;8798;51.938;4.348;2023-02-21T00:34:37;19.17;;;6.83;;
17361;SDS011;8798;51.938;4.348;2023-02-21T00:37:22;19.90;;;7.63;;
17361;SDS011;8798;51.938;4.348;2023-02-21T00:40:10;19.60;;;7.83;;
17361;SDS011;8798;51.938;4.348;2023-02-21T00:42:57;22.80;;;8.70;;
17361;SDS011;8798;51.938;4.348;2023-02-21T00:45:43;21.17;;;8.83;;
17361;SDS011;8798;51.938;4.348;2023-02-21T00:48:29;16.77;;;7.63;;
17361;SDS011;8798;51.938;4.348;2023-02-21T00:51:14;21.63;;;8.67;;
17361;SDS011;8798;51.938;4.348;2023-02-21T00:54:00;18.70;;;8.60;;
17361;SDS011;8798;51.938;4.348;2023-02-21T00:56:46;23.60;;;9.13;;
17361;SDS011;8798;51.938;4.348;2023-02-21T00:59:32;24.67;;;9.10;;
17361;SDS011;8798;51.938;4.348;2023-02-21T01:02:18;15.93;;;7.10;;
17361;SDS011;8798;51.938;4.348;2023-02-21T01:05:03;22.67;;;9.50;;
17361;SDS011;8798;51.938;4.348;2023-02-21T01:07:49;16.17;;;7.23;;
17361;SDS011;8798;51.938;4.348;2023-02-21T01:10:35;25.80;;;9.00;;
17361;SDS011;8798;51.938;4.348;2023-02-21T01:13:20;19.20;;;7.67;;
17361;SDS011;8798;51.938;4.348;2023-02-21T01:16:06;19.33;;;8.87;;
17361;SDS011;8798;51.938;4.348;2023-02-21T01:18:52;20.47;;;9.27;;
17361;SDS011;8798;51.938;4.348;2023-02-21T01:21:37;21.90;;;8.53;;
17361;SDS011;8798;51.938;4.348;2023-02-21T01:24:23;21.43;;;8.50;;
17361;SDS011;8798;51.938;4.348;2023-02-21T01:27:08;22.10;;;8.13;;
17361;SDS011;8798;51.938;4.348;2023-02-21T01:29:53;22.83;;;8.17;;
17361;SDS011;8798;51.938;4.348;2023-02-21T01:32:39;23.67;;;8.73;;
17361;SDS011;8798;51.938;4.348;2023-02-21T01:35:24;21.80;;;8.03;;
17361;SDS011;8798;51.938;4.348;2023-02-21T01:38:10;16.87;;;7.87;;
17361;SDS011;8798;51.938;4.348;2023-02-21T01:40:55;19.30;;;7.07;;
17361;SDS011;8798;51.938;4.348;2023-02-21T01:43:54;19.00;;;7.17;;
17361;SDS011;8798;51.938;4.348;2023-02-21T01:46:41;15.17;;;7.63;;
17361;SDS011;8798;51.938;4.348;2023-02-21T01:49:28;18.57;;;7.90;;
17361;SDS011;8798;51.938;4.348;2023-02-21T01:52:14;19.37;;;8.13;;
17361;SDS011;8798;51.938;4.348;2023-02-21T01:55:00;20.17;;;8.43;;
17361;SDS011;8798;51.938;4.348;2023-02-21T01:57:48;21.43;;;8.50;;
17361;SDS011;8798;51.938;4.348;2023-02-21T02:00:35;19.63;;;8.40;;
17361;SDS011;8798;51.938;4.348;2023-02-21T02:03:21;17.60;;;8.40;;
17361;SDS011;8798;51.938;4.348;2023-02-21T02:06:08;20.20;;;7.70;;
17361;SDS011;8798;51.938;4.348;2023-02-21T02:08:56;18.10;;;8.07;;
17361;SDS011;8798;51.938;4.348;2023-02-21T02:11:46;12.23;;;6.63;;
17361;SDS011;8798;51.938;4.348;2023-02-21T02:24:02;21.10;;;9.63;;
17361;SDS011;8798;51.938;4.348;2023-02-21T02:26:49;20.30;;;9.87;;
17361;SDS011;8798;51.938;4.348;2023-02-21T02:32:51;23.27;;;10.30;;
17361;SDS011;8798;51.938;4.348;2023-02-21T02:35:43;21.67;;;10.80;;
17361;SDS011;8798;51.938;4.348;2023-02-21T02:38:16;24.17;;;9.90;;
17361;SDS011;8798;51.938;4.348;2023-02-21T02:40:53;22.90;;;10.83;;
17361;SDS011;8798;51.938;4.348;2023-02-21T02:43:27;23.10;;;10.57;;
17361;SDS011;8798;51.938;4.348;2023-02-21T02:46:02;27.80;;;11.30;;
17361;SDS011;8798;51.938;4.348;2023-02-21T02:48:33;27.93;;;10.47;;
17361;SDS011;8798;51.938;4.348;2023-02-21T02:51:06;20.50;;;9.60;;
17361;SDS011;8798;51.938;4.348;2023-02-21T02:53:37;25.07;;;10.73;;
17361;SDS011;8798;51.938;4.348;2023-02-21T02:56:06;26.30;;;11.07;;
17361;SDS011;8798;51.938;4.348;2023-02-21T02:58:36;22.77;;;10.73;;
17361;SDS011;8798;51.938;4.348;2023-02-21T03:01:13;28.50;;;11.43;;
17361;SDS011;8798;51.938;4.348;2023-02-21T03:03:57;21.17;;;9.70;;
17361;SDS011;8798;51.938;4.348;2023-02-21T03:06:41;22.57;;;10.33;;
17361;SDS011;8798;51.938;4.348;2023-02-21T03:09:17;21.90;;;10.73;;
17361;SDS011;8798;51.938;4.348;2023-02-21T03:11:55;21.80;;;9.43;;
17361;SDS011;8798;51.938;4.348;2023-02-21T03:14:29;22.03;;;10.50;;
17361;SDS011;8798;51.938;4.348;2023-02-21T03:17:03;25.20;;;10.70;;
17361;SDS011;8798;51.938;4.348;2023-02-21T03:19:36;19.07;;;9.10;;
17361;SDS011;8798;51.938;4.348;2023-02-21T03:22:08;23.03;;;10.43;;
17361;SDS011;8798;51.938;4.348;2023-02-21T03:24:40;26.80;;;11.20;;
17361;SDS011;8798;51.938;4.348;2023-02-21T03:27:10;20.23;;;10.53;;
17361;SDS011;8798;51.938;4.348;2023-02-21T03:29:39;21.03;;;10.00;;
17361;SDS011;8798;51.938;4.348;2023-02-21T03:32:08;20.53;;;8.87;;
17361;SDS011;8798;51.938;4.348;2023-02-21T03:34:40;24.70;;;10.70;;
17361;SDS011;8798;51.938;4.348;2023-02-21T03:37:18;28.83;;;11.67;;
17361;SDS011;8798;51.938;4.348;2023-02-21T03:39:48;27.20;;;12.03;;
17361;SDS011;8798;51.938;4.348;2023-02-21T03:42:15;26.90;;;11.70;;
17361;SDS011;8798;51.938;4.348;2023-02-21T03:44:43;25.20;;;11.70;;
17361;SDS011;8798;51.938;4.348;2023-02-21T03:47:11;26.93;;;12.23;;
17361;SDS011;8798;51.938;4.348;2023-02-21T03:49:39;34.07;;;12.63;;
17361;SDS011;8798;51.938;4.348;2023-02-21T03:52:07;28.63;;;11.70;;
17361;SDS011;8798;51.938;4.348;2023-02-21T03:54:39;25.47;;;11.57;;
17361;SDS011;8798;51.938;4.348;2023-02-21T03:57:07;25.73;;;11.00;;
17361;SDS011;8798;51.938;4.348;2023-02-21T03:59:35;30.23;;;11.60;;
17361;SDS011;8798;51.938;4.348;2023-02-21T04:02:03;27.10;;;11.37;;
17361;SDS011;8798;51.938;4.348;2023-02-21T04:04:31;23.57;;;11.87;;
17361;SDS011;8798;51.938;4.348;2023-02-21T04:06:59;24.10;;;10.67;;
17361;SDS011;8798;51.938;4.348;2023-02-21T04:09:27;22.90;;;10.37;;
17361;SDS011;8798;51.938;4.348;2023-02-21T04:11:56;22.80;;;11.30;;
17361;SDS011;8798;51.938;4.348;2023-02-21T04:14:24;25.63;;;11.40;;
17361;SDS011;8798;51.938;4.348;2023-02-21T04:16:51;27.63;;;11.57;;
17361;SDS011;8798;51.938;4.348;2023-02-21T04:19:19;23.77;;;11.70;;
17361;SDS011;8798;51.938;4.348;2023-02-21T04:21:47;25.10;;;10.90;;
17361;SDS011;8798;51.938;4.348;2023-02-21T04:24:15;20.53;;;10.73;;
17361;SDS011;8798;51.938;4.348;2023-02-21T04:26:43;21.07;;;10.37;;
17361;SDS011;8798;51.938;4.348;2023-02-21T04:29:12;21.37;;;10.20;;
17361;SDS011;8798;51.938;4.348;2023-02-21T04:31:40;21.57;;;10.60;;
17361;SDS011;8798;51.938;4.348;2023-02-21T04:34:08;26.80;;;11.13;;
17361;SDS011;8798;51.938;4.348;2023-02-21T04:36:37;21.77;;;10.80;;
17361;SDS011;8798;51.938;4.348;2023-02-21T04:39:06;24.83;;;11.37;;
17361;SDS011;8798;51.938;4.348;2023-02-21T04:41:34;25.47;;;11.90;;
17361;SDS011;8798;51.938;4.348;2023-02-21T04:44:02;24.90;;;11.17;;
17361;SDS011;8798;51.938;4.348;2023-02-21T04:46:33;22.30;;;11.70;;
17361;SDS011;8798;51.938;4.348;2023-02-21T04:49:00;23.03;;;10.20;;
17361;SDS011;8798;51.938;4.348;2023-02-21T04:51:28;26.77;;;10.83;;
17361;SDS011;8798;51.938;4.348;2023-02-21T04:53:56;22.57;;;10.83;;
17361;SDS011;8798;51.938;4.348;2023-02-21T04:56:24;25.10;;;11.30;;
17361;SDS011;8798;51.938;4.348;2023-02-21T04:58:54;23.03;;;11.00;;
17361;SDS011;8798;51.938;4.348;2023-02-21T05:01:25;25.87;;;11.30;;
17361;SDS011;8798;51.938;4.348;2023-02-21T05:03:56;25.53;;;11.90;;
17361;SDS011;8798;51.938;4.348;2023-02-21T05:06:24;27.27;;;11.00;;
17361;SDS011;8798;51.938;4.348;2023-02-21T05:08:54;26.43;;;12.43;;
17361;SDS011;8798;51.938;4.348;2023-02-21T05:11:22;27.63;;;12.20;;
17361;SDS011;8798;51.938;4.348;2023-02-21T05:13:50;19.97;;;10.63;;
17361;SDS011;8798;51.938;4.348;2023-02-21T05:16:19;21.07;;;10.40;;
17361;SDS011;8798;51.938;4.348;2023-02-21T05:18:47;25.10;;;11.67;;
17361;SDS011;8798;51.938;4.348;2023-02-21T05:21:17;25.07;;;11.53;;
17361;SDS011;8798;51.938;4.348;2023-02-21T05:23:46;22.03;;;11.40;;
17361;SDS011;8798;51.938;4.348;2023-02-21T05:26:22;26.07;;;11.63;;
17361;SDS011;8798;51.938;4.348;2023-02-21T05:28:51;25.10;;;11.63;;
17361;SDS011;8798;51.938;4.348;2023-02-21T05:31:20;25.27;;;12.27;;
17361;SDS011;8798;51.938;4.348;2023-02-21T05:33:48;24.87;;;11.10;;
17361;SDS011;8798;51.938;4.348;2023-02-21T05:36:17;24.00;;;11.33;;
17361;SDS011;8798;51.938;4.348;2023-02-21T05:38:46;22.77;;;11.70;;
17361;SDS011;8798;51.938;4.348;2023-02-21T05:41:17;21.87;;;11.23;;
17361;SDS011;8798;51.938;4.348;2023-02-21T05:43:46;23.60;;;11.07;;
17361;SDS011;8798;51.938;4.348;2023-02-21T05:46:19;24.57;;;11.67;;
17361;SDS011;8798;51.938;4.348;2023-02-21T05:48:50;23.50;;;11.10;;
17361;SDS011;8798;51.938;4.348;2023-02-21T05:51:19;22.23;;;11.43;;
17361;SDS011;8798;51.938;4.348;2023-02-21T05:53:48;21.63;;;10.93;;
17361;SDS011;8798;51.938;4.348;2023-02-21T05:56:18;24.03;;;10.63;;
17361;SDS011;8798;51.938;4.348;2023-02-21T05:58:47;24.30;;;11.80;;
17361;SDS011;8798;51.938;4.348;2023-02-21T06:01:15;21.63;;;11.23;;
17361;SDS011;8798;51.938;4.348;2023-02-21T06:03:43;26.13;;;12.00;;
17361;SDS011;8798;51.938;4.348;2023-02-21T06:06:13;25.67;;;12.40;;
17361;SDS011;8798;51.938;4.348;2023-02-21T06:08:43;26.00;;;11.07;;
17361;SDS011;8798;51.938;4.348;2023-02-21T06:11:11;25.07;;;10.37;;
17361;SDS011;8798;51.938;4.348;2023-02-21T06:13:41;30.30;;;11.80;;
17361;SDS011;8798;51.938;4.348;2023-02-21T06:16:09;27.20;;;12.23;;
17361;SDS011;8798;51.938;4.348;2023-02-21T06:18:37;24.37;;;11.27;;
17361;SDS011;8798;51.938;4.348;2023-02-21T06:21:05;22.90;;;11.33;;
17361;SDS011;8798;51.938;4.348;2023-02-21T06:23:32;25.10;;;11.17;;
17361;SDS011;8798;51.938;4.348;2023-02-21T06:26:02;25.87;;;11.27;;
17361;SDS011;8798;51.938;4.348;2023-02-21T06:28:29;24.10;;;11.60;;
17361;SDS011;8798;51.938;4.348;2023-02-21T06:30:57;27.23;;;12.60;;
17361;SDS011;8798;51.938;4.348;2023-02-21T06:33:25;28.37;;;11.80;;
17361;SDS011;8798;51.938;4.348;2023-02-21T06:35:53;24.67;;;11.10;;
17361;SDS011;8798;51.938;4.348;2023-02-21T06:38:22;26.00;;;11.53;;
17361;SDS011;8798;51.938;4.348;2023-02-21T06:40:50;25.23;;;10.83;;
17361;SDS011;8798;51.938;4.348;2023-02-21T06:43:19;27.23;;;12.00;;
17361;SDS011;8798;51.938;4.348;2023-02-21T06:45:47;26.53;;;11.93;;
17361;SDS011;8798;51.938;4.348;2023-02-21T06:48:15;27.60;;;12.37;;
17361;SDS011;8798;51.938;4.348;2023-02-21T06:50:43;24.07;;;11.67;;
17361;SDS011;8798;51.938;4.348;2023-02-21T06:53:11;26.40;;;11.37;;
17361;SDS011;8798;51.938;4.348;2023-02-21T06:55:39;22.27;;;11.17;;
17361;SDS011;8798;51.938;4.348;2023-02-21T06:58:07;29.67;;;12.13;;
17361;SDS011;8798;51.938;4.348;2023-02-21T07:00:37;26.17;;;12.13;;
17361;SDS011;8798;51.938;4.348;2023-02-21T07:03:05;27.33;;;11.93;;
17361;SDS011;8798;51.938;4.348;2023-02-21T07:05:33;25.70;;;11.17;;
17361;SDS011;8798;51.938;4.348;2023-02-21T07:08:02;26.97;;;12.07;;
17361;SDS011;8798;51.938;4.348;2023-02-21T07:10:31;27.17;;;12.30;;
17361;SDS011;8798;51.938;4.348;2023-02-21T07:12:58;25.73;;;11.60;;
17361;SDS011;8798;51.938;4.348;2023-02-21T07:15:26;27.20;;;11.37;;
17361;SDS011;8798;51.938;4.348;2023-02-21T07:17:56;27.03;;;11.47;;
17361;SDS011;8798;51.938;4.348;2023-02-21T07:20:23;27.43;;;11.80;;
17361;SDS011;8798;51.938;4.348;2023-02-21T07:22:53;25.43;;;10.23;;
17361;SDS011;8798;51.938;4.348;2023-02-21T07:25:21;30.63;;;11.37;;
17361;SDS011;8798;51.938;4.348;2023-02-21T07:27:49;23.10;;;11.10;;
17361;SDS011;8798;51.938;4.348;2023-02-21T07:30:18;24.37;;;11.03;;
17361;SDS011;8798;51.938;4.348;2023-02-21T07:32:46;21.47;;;11.37;;
17361;SDS011;8798;51.938;4.348;2023-02-21T07:35:15;23.73;;;11.67;;
17361;SDS011;8798;51.938;4.348;2023-02-21T07:37:43;21.43;;;11.17;;
17361;SDS011;8798;51.938;4.348;2023-02-21T07:40:11;25.20;;;10.73;;
17361;SDS011;8798;51.938;4.348;2023-02-21T07:42:39;30.00;;;11.57;;
17361;SDS011;8798;51.938;4.348;2023-02-21T07:45:09;26.60;;;11.43;;
17361;SDS011;8798;51.938;4.348;2023-02-21T07:47:37;21.77;;;10.87;;
17361;SDS011;8798;51.938;4.348;2023-02-21T07:50:05;21.73;;;10.23;;
17361;SDS011;8798;51.938;4.348;2023-02-21T07:52:35;24.27;;;10.80;;
17361;SDS011;8798;51.938;4.348;2023-02-21T07:55:03;26.20;;;10.87;;
17361;SDS011;8798;51.938;4.348;2023-02-21T07:57:31;22.20;;;10.33;;
17361;SDS011;8798;51.938;4.348;2023-02-21T07:59:59;25.37;;;10.10;;
17361;SDS011;8798;51.938;4.348;2023-02-21T08:02:27;24.37;;;9.30;;
17361;SDS011;8798;51.938;4.348;2023-02-21T08:04:55;23.50;;;9.73;;
17361;SDS011;8798;51.938;4.348;2023-02-21T08:07:22;22.83;;;10.10;;
17361;SDS011;8798;51.938;4.348;2023-02-21T08:09:52;22.87;;;10.30;;
17361;SDS011;8798;51.938;4.348;2023-02-21T08:12:19;22.70;;;10.00;;
17361;SDS011;8798;51.938;4.348;2023-02-21T08:14:47;27.70;;;11.10;;
17361;SDS011;8798;51.938;4.348;2023-02-21T08:17:15;25.30;;;10.27;;
17361;SDS011;8798;51.938;4.348;2023-02-21T08:19:43;32.03;;;10.33;;
17361;SDS011;8798;51.938;4.348;2023-02-21T08:22:11;24.40;;;10.40;;
17361;SDS011;8798;51.938;4.348;2023-02-21T08:24:39;26.43;;;10.00;;
17361;SDS011;8798;51.938;4.348;2023-02-21T08:27:10;17.93;;;9.17;;
17361;SDS011;8798;51.938;4.348;2023-02-21T08:29:38;29.53;;;10.00;;
17361;SDS011;8798;51.938;4.348;2023-02-21T08:32:06;23.73;;;10.37;;
17361;SDS011;8798;51.938;4.348;2023-02-21T08:34:34;24.97;;;10.90;;
17361;SDS011;8798;51.938;4.348;2023-02-21T08:37:02;29.63;;;10.83;;
17361;SDS011;8798;51.938;4.348;2023-02-21T08:39:39;24.07;;;11.00;;
17361;SDS011;8798;51.938;4.348;2023-02-21T08:42:12;28.70;;;10.60;;
17361;SDS011;8798;51.938;4.348;2023-02-21T08:44:41;24.77;;;10.67;;
17361;SDS011;8798;51.938;4.348;2023-02-21T08:47:10;25.43;;;10.27;;
17361;SDS011;8798;51.938;4.348;2023-02-21T08:49:38;23.93;;;10.73;;
17361;SDS011;8798;51.938;4.348;2023-02-21T08:52:08;23.13;;;10.20;;
17361;SDS011;8798;51.938;4.348;2023-02-21T08:54:36;28.43;;;10.87;;
17361;SDS011;8798;51.938;4.348;2023-02-21T08:57:04;26.37;;;10.70;;
17361;SDS011;8798;51.938;4.348;2023-02-21T08:59:33;24.23;;;9.70;;
17361;SDS011;8798;51.938;4.348;2023-02-21T09:02:03;30.33;;;10.80;;
17361;SDS011;8798;51.938;4.348;2023-02-21T09:04:30;25.83;;;9.53;;
17361;SDS011;8798;51.938;4.348;2023-02-21T09:06:58;35.90;;;11.27;;
17361;SDS011;8798;51.938;4.348;2023-02-21T09:09:26;24.73;;;10.57;;
17361;SDS011;8798;51.938;4.348;2023-02-21T09:11:54;30.03;;;10.93;;
17361;SDS011;8798;51.938;4.348;2023-02-21T09:14:22;25.87;;;10.37;;
17361;SDS011;8798;51.938;4.348;2023-02-21T09:16:51;22.53;;;10.10;;
17361;SDS011;8798;51.938;4.348;2023-02-21T09:19:19;28.53;;;11.27;;
17361;SDS011;8798;51.938;4.348;2023-02-21T09:21:47;24.20;;;10.70;;
17361;SDS011;8798;51.938;4.348;2023-02-21T09:24:20;22.80;;;10.93;;
17361;SDS011;8798;51.938;4.348;2023-02-21T09:26:50;23.40;;;10.47;;
17361;SDS011;8798;51.938;4.348;2023-02-21T09:29:19;25.17;;;10.50;;
17361;SDS011;8798;51.938;4.348;2023-02-21T09:31:48;23.83;;;10.73;;
17361;SDS011;8798;51.938;4.348;2023-02-21T09:34:17;30.63;;;10.00;;
17361;SDS011;8798;51.938;4.348;2023-02-21T09:36:45;25.47;;;10.67;;
17361;SDS011;8798;51.938;4.348;2023-02-21T09:39:13;21.67;;;10.03;;
17361;SDS011;8798;51.938;4.348;2023-02-21T09:41:41;24.87;;;11.00;;
17361;SDS011;8798;51.938;4.348;2023-02-21T09:44:11;25.07;;;11.27;;
17361;SDS011;8798;51.938;4.348;2023-02-21T09:46:43;27.97;;;11.03;;
17361;SDS011;8798;51.938;4.348;2023-02-21T09:49:15;25.87;;;10.47;;
17361;SDS011;8798;51.938;4.348;2023-02-21T09:51:48;25.60;;;10.83;;
17361;SDS011;8798;51.938;4.348;2023-02-21T09:54:17;25.43;;;10.43;;
17361;SDS011;8798;51.938;4.348;2023-02-21T09:56:50;22.47;;;10.17;;
17361;SDS011;8798;51.938;4.348;2023-02-21T09:59:19;23.67;;;10.43;;
17361;SDS011;8798;51.938;4.348;2023-02-21T10:04:56;26.60;;;10.37;;
17361;SDS011;8798;51.938;4.348;2023-02-21T10:07:31;23.57;;;11.37;;
17361;SDS011;8798;51.938;4.348;2023-02-21T10:10:07;28.33;;;10.63;;
17361;SDS011;8798;51.938;4.348;2023-02-21T10:12:42;27.73;;;11.57;;
17361;SDS011;8798;51.938;4.348;2023-02-21T10:15:20;26.40;;;11.10;;
17361;SDS011;8798;51.938;4.348;2023-02-21T10:18:01;22.60;;;10.83;;
17361;SDS011;8798;51.938;4.348;2023-02-21T10:20:34;27.73;;;10.97;;
17361;SDS011;8798;51.938;4.348;2023-02-21T10:23:11;23.27;;;11.13;;
17361;SDS011;8798;51.938;4.348;2023-02-21T10:25:42;26.77;;;11.00;;
17361;SDS011;8798;51.938;4.348;2023-02-21T10:28:13;24.53;;;10.50;;
17361;SDS011;8798;51.938;4.348;2023-02-21T10:30:44;23.50;;;9.80;;
17361;SDS011;8798;51.938;4.348;2023-02-21T10:33:13;20.30;;;9.67;;
17361;SDS011;8798;51.938;4.348;2023-02-21T10:35:43;22.63;;;10.23;;
17361;SDS011;8798;51.938;4.348;2023-02-21T10:38:12;20.47;;;9.17;;
17361;SDS011;8798;51.938;4.348;2023-02-21T10:40:43;25.67;;;9.80;;
17361;SDS011;8798;51.938;4.348;2023-02-21T10:43:15;24.30;;;9.33;;
17361;SDS011;8798;51.938;4.348;2023-02-21T10:45:46;20.80;;;9.47;;
17361;SDS011;8798;51.938;4.348;2023-02-21T10:48:20;19.00;;;8.23;;
17361;SDS011;8798;51.938;4.348;2023-02-21T10:51:03;20.07;;;8.70;;
17361;SDS011;8798;51.938;4.348;2023-02-21T10:53:33;17.47;;;8.03;;
17361;SDS011;8798;51.938;4.348;2023-02-21T10:56:20;15.17;;;6.93;;
17361;SDS011;8798;51.938;4.348;2023-02-21T10:58:51;14.90;;;7.87;;
17361;SDS011;8798;51.938;4.348;2023-02-21T11:01:28;15.83;;;7.03;;
17361;SDS011;8798;51.938;4.348;2023-02-21T11:03:59;14.53;;;7.30;;
17361;SDS011;8798;51.938;4.348;2023-02-21T11:06:35;14.97;;;6.67;;
17361;SDS011;8798;51.938;4.348;2023-02-21T11:12:01;12.57;;;6.53;;
17361;SDS011;8798;51.938;4.348;2023-02-21T11:14:31;13.47;;;6.40;;
17361;SDS011;8798;51.938;4.348;2023-02-21T11:17:16;13.10;;;6.47;;
17361;SDS011;8798;51.938;4.348;2023-02-21T11:19:50;12.07;;;6.23;;
17361;SDS011;8798;51.938;4.348;2023-02-21T11:22:21;11.10;;;6.27;;
17361;SDS011;8798;51.938;4.348;2023-02-21T11:24:58;15.60;;;6.70;;
17361;SDS011;8798;51.938;4.348;2023-02-21T11:27:31;12.23;;;6.50;;
17361;SDS011;8798;51.938;4.348;2023-02-21T11:30:03;14.13;;;6.17;;
17361;SDS011;8798;51.938;4.348;2023-02-21T11:32:40;14.10;;;6.50;;
17361;SDS011;8798;51.938;4.348;2023-02-21T11:35:20;14.57;;;6.93;;
17361;SDS011;8798;51.938;4.348;2023-02-21T11:37:53;13.27;;;6.73;;
17361;SDS011;8798;51.938;4.348;2023-02-21T11:40:24;12.83;;;6.53;;
17361;SDS011;8798;51.938;4.348;2023-02-21T11:45:47;12.67;;;6.10;;
17361;SDS011;8798;51.938;4.348;2023-02-21T11:48:26;13.30;;;6.73;;
17361;SDS011;8798;51.938;4.348;2023-02-21T11:50:58;15.07;;;6.47;;
17361;SDS011;8798;51.938;4.348;2023-02-21T11:53:35;14.17;;;6.87;;
17361;SDS011;8798;51.938;4.348;2023-02-21T11:56:12;14.33;;;6.27;;
17361;SDS011;8798;51.938;4.348;2023-02-21T11:58:48;15.97;;;6.57;;
17361;SDS011;8798;51.938;4.348;2023-02-21T12:01:24;11.57;;;5.93;;
17361;SDS011;8798;51.938;4.348;2023-02-21T12:04:03;10.33;;;5.33;;
17361;SDS011;8798;51.938;4.348;2023-02-21T12:06:43;12.37;;;5.77;;
17361;SDS011;8798;51.938;4.348;2023-02-21T12:09:21;11.60;;;5.70;;
17361;SDS011;8798;51.938;4.348;2023-02-21T12:11:58;13.07;;;6.03;;
17361;SDS011;8798;51.938;4.348;2023-02-21T12:14:36;12.40;;;5.73;;
17361;SDS011;8798;51.938;4.348;2023-02-21T12:17:12;9.93;;;5.50;;
17361;SDS011;8798;51.938;4.348;2023-02-21T12:19:57;11.87;;;5.27;;
17361;SDS011;8798;51.938;4.348;2023-02-21T12:22:45;12.43;;;5.80;;
17361;SDS011;8798;51.938;4.348;2023-02-21T12:25:30;13.00;;;5.70;;
17361;SDS011;8798;51.938;4.348;2023-02-21T12:28:03;12.47;;;5.87;;
17361;SDS011;8798;51.938;4.348;2023-02-21T12:30:43;10.37;;;5.17;;
17361;SDS011;8798;51.938;4.348;2023-02-21T12:33:29;8.53;;;4.77;;
17361;SDS011;8798;51.938;4.348;2023-02-21T12:36:09;9.70;;;4.30;;
17361;SDS011;8798;51.938;4.348;2023-02-21T12:39:00;10.77;;;5.07;;
17361;SDS011;8798;51.938;4.348;2023-02-21T12:44:42;7.90;;;3.97;;
17361;SDS011;8798;51.938;4.348;2023-02-21T12:47:22;9.37;;;4.30;;
17361;SDS011;8798;51.938;4.348;2023-02-21T12:49:56;8.37;;;4.07;;
17361;SDS011;8798;51.938;4.348;2023-02-21T12:52:29;9.07;;;4.20;;
17361;SDS011;8798;51.938;4.348;2023-02-21T12:55:01;6.93;;;3.60;;
17361;SDS011;8798;51.938;4.348;2023-02-21T12:57:35;9.57;;;3.50;;
17361;SDS011;8798;51.938;4.348;2023-02-21T13:00:14;8.20;;;3.53;;
17361;SDS011;8798;51.938;4.348;2023-02-21T13:02:49;7.33;;;3.40;;
17361;SDS011;8798;51.938;4.348;2023-02-21T13:05:27;9.07;;;3.90;;
17361;SDS011;8798;51.938;4.348;2023-02-21T13:08:03;9.17;;;4.40;;
17361;SDS011;8798;51.938;4.348;2023-02-21T13:10:36;10.60;;;4.23;;
17361;SDS011;8798;51.938;4.348;2023-02-21T13:13:14;7.00;;;3.50;;
17361;SDS011;8798;51.938;4.348;2023-02-21T13:15:45;6.87;;;3.30;;
17361;SDS011;8798;51.938;4.348;2023-02-21T13:18:20;8.77;;;3.73;;
17361;SDS011;8798;51.938;4.348;2023-02-21T13:20:52;8.40;;;4.20;;
17361;SDS011;8798;51.938;4.348;2023-02-21T13:30:00;7.47;;;3.80;;
17361;SDS011;8798;51.938;4.348;2023-02-21T13:32:35;7.67;;;3.67;;
17361;SDS011;8798;51.938;4.348;2023-02-21T13:35:05;9.17;;;4.30;;
17361;SDS011;8798;51.938;4.348;2023-02-21T13:37:42;7.37;;;3.50;;
17361;SDS011;8798;51.938;4.348;2023-02-21T13:40:17;10.80;;;4.47;;
17361;SDS011;8798;51.938;4.348;2023-02-21T13:42:57;10.93;;;5.27;;
17361;SDS011;8798;51.938;4.348;2023-02-21T13:45:29;12.17;;;5.90;;
17361;SDS011;8798;51.938;4.348;2023-02-21T13:48:17;14.63;;;6.37;;
17361;SDS011;8798;51.938;4.348;2023-02-21T13:50:53;14.40;;;6.50;;
17361;SDS011;8798;51.938;4.348;2023-02-21T13:53:24;15.43;;;7.13;;
17361;SDS011;8798;51.938;4.348;2023-02-21T14:05:04;24.53;;;9.37;;
17361;SDS011;8798;51.938;4.348;2023-02-21T14:07:44;19.83;;;8.87;;
17361;SDS011;8798;51.938;4.348;2023-02-21T14:10:23;25.50;;;10.23;;
17361;SDS011;8798;51.938;4.348;2023-02-21T14:13:14;30.23;;;12.20;;
17361;SDS011;8798;51.938;4.348;2023-02-21T14:15:48;32.93;;;12.83;;
17361;SDS011;8798;51.938;4.348;2023-02-21T14:18:20;34.93;;;12.33;;
17361;SDS011;8798;51.938;4.348;2023-02-21T14:20:53;31.00;;;12.77;;
17361;SDS011;8798;51.938;4.348;2023-02-21T14:23:23;36.50;;;14.67;;
17361;SDS011;8798;51.938;4.348;2023-02-21T14:26:04;39.47;;;15.13;;
17361;SDS011;8798;51.938;4.348;2023-02-21T14:28:48;40.90;;;14.43;;
17361;SDS011;8798;51.938;4.348;2023-02-21T14:31:44;45.83;;;15.67;;
17361;SDS011;8798;51.938;4.348;2023-02-21T14:34:16;41.43;;;16.07;;
17361;SDS011;8798;51.938;4.348;2023-02-21T14:36:49;41.03;;;15.33;;
17361;SDS011;8798;51.938;4.348;2023-02-21T14:39:20;41.23;;;14.40;;
17361;SDS011;8798;51.938;4.348;2023-02-21T14:42:03;37.43;;;14.00;;
17361;SDS011;8798;51.938;4.348;2023-02-21T14:44:49;35.83;;;13.33;;
17361;SDS011;8798;51.938;4.348;2023-02-21T14:47:34;35.20;;;13.50;;
17361;SDS011;8798;51.938;4.348;2023-02-21T14:50:19;33.83;;;12.67;;
17361;SDS011;8798;51.938;4.348;2023-02-21T14:59:24;31.57;;;12.63;;
17361;SDS011;8798;51.938;4.348;2023-02-21T15:02:01;28.93;;;11.90;;
17361;SDS011;8798;51.938;4.348;2023-02-21T15:04:40;30.57;;;12.47;;
17361;SDS011;8798;51.938;4.348;2023-02-21T15:07:16;27.63;;;11.77;;
17361;SDS011;8798;51.938;4.348;2023-02-21T15:12:43;27.70;;;11.37;;
17361;SDS011;8798;51.938;4.348;2023-02-21T15:15:14;32.53;;;12.53;;
17361;SDS011;8798;51.938;4.348;2023-02-21T15:17:53;24.67;;;10.77;;
17361;SDS011;8798;51.938;4.348;2023-02-21T15:20:27;27.43;;;11.73;;
17361;SDS011;8798;51.938;4.348;2023-02-21T15:22:58;25.20;;;10.43;;
17361;SDS011;8798;51.938;4.348;2023-02-21T15:25:28;30.50;;;12.07;;
17361;SDS011;8798;51.938;4.348;2023-02-21T15:27:58;24.73;;;11.37;;
17361;SDS011;8798;51.938;4.348;2023-02-21T15:30:29;28.90;;;12.27;;
17361;SDS011;8798;51.938;4.348;2023-02-21T15:33:11;28.60;;;11.87;;
17361;SDS011;8798;51.938;4.348;2023-02-21T15:35:44;30.67;;;13.43;;
17361;SDS011;8798;51.938;4.348;2023-02-21T15:38:21;32.20;;;13.50;;
17361;SDS011;8798;51.938;4.348;2023-02-21T15:40:55;30.23;;;12.77;;
17361;SDS011;8798;51.938;4.348;2023-02-21T15:43:32;24.83;;;11.33;;
17361;SDS011;8798;51.938;4.348;2023-02-21T15:46:09;24.10;;;10.40;;
17361;SDS011;8798;51.938;4.348;2023-02-21T15:48:42;24.13;;;10.27;;
17361;SDS011;8798;51.938;4.348;2023-02-21T15:51:10;21.10;;;9.00;;
17361;SDS011;8798;51.938;4.348;2023-02-21T15:53:41;22.60;;;8.97;;
17361;SDS011;8798;51.938;4.348;2023-02-21T15:56:16;24.93;;;10.13;;
17361;SDS011;8798;51.938;4.348;2023-02-21T15:59:06;27.50;;;11.83;;
17361;SDS011;8798;51.938;4.348;2023-02-21T16:01:36;25.73;;;10.87;;
17361;SDS011;8798;51.938;4.348;2023-02-21T16:04:13;24.43;;;11.50;;
17361;SDS011;8798;51.938;4.348;2023-02-21T16:06:44;26.67;;;11.33;;
17361;SDS011;8798;51.938;4.348;2023-02-21T16:09:21;30.63;;;11.97;;
17361;SDS011;8798;51.938;4.348;2023-02-21T16:11:54;31.27;;;12.80;;